Time;durP1;ratioP1;P1;durP2;ratioP2;P2;SDS_P1;SDS_P2;PMS_P1;PMS_P2;Temp;Humidity;BMP_temperature;BMP_pressure;BME280_temperature;BME280_humidity;BME280_pressure;Samples;Min_cycle;Max_cycle;Signal;HPM_P1;HPM_P2
2023/12/26 00:00:06;;;;;;;1.02;0.80;;;11.30;99.90;;;;;;6199578;23;20375;-71
2023/12/26 00:02:32;;;;;;;0.82;0.80;;;11.30;99.90;;;;;;6196095;23;20008;-71
2023/12/26 00:04:58;;;;;;;1.77;0.70;;;11.30;99.90;;;;;;6198778;23;20051;-64
2023/12/26 00:07:23;;;;;;;2.78;1.45;;;11.30;99.90;;;;;;6196549;23;20674;-65
2023/12/26 00:09:49;;;;;;;1.92;1.50;;;11.30;99.90;;;;;;6200067;23;20005;-65
2023/12/26 00:12:15;;;;;;;2.10;1.20;;;11.30;99.90;;;;;;6197327;23;20115;-64
2023/12/26 00:14:41;;;;;;;2.00;1.40;;;11.40;99.90;;;;;;6199114;23;20442;-65
2023/12/26 00:17:06;;;;;;;4.03;1.27;;;11.40;99.90;;;;;;6199151;23;20151;-65
2023/12/26 00:19:32;;;;;;;2.03;1.17;;;11.40;99.90;;;;;;6202351;23;20035;-65
2023/12/26 00:21:57;;;;;;;1.13;0.73;;;11.40;99.90;;;;;;6198762;23;20486;-65
2023/12/26 00:24:23;;;;;;;1.77;0.75;;;11.40;99.90;;;;;;6200906;23;20024;-64
2023/12/26 00:26:49;;;;;;;2.42;1.20;;;11.40;99.90;;;;;;6201050;23;20080;-64
2023/12/26 00:29:14;;;;;;;2.15;0.80;;;11.40;99.90;;;;;;6200645;23;20019;-64
2023/12/26 00:31:41;;;;;;;1.73;1.20;;;11.50;99.90;;;;;;6200618;23;20457;-64
2023/12/26 00:34:07;;;;;;;3.15;1.17;;;11.60;99.90;;;;;;6199553;23;20267;-65
2023/12/26 00:36:33;;;;;;;1.25;0.90;;;11.60;99.90;;;;;;6200628;23;20394;-65
2023/12/26 00:38:58;;;;;;;2.15;1.30;;;11.60;99.90;;;;;;6200898;23;20008;-65
2023/12/26 00:41:24;;;;;;;2.38;1.42;;;11.60;99.90;;;;;;6200166;23;20004;-69
2023/12/26 00:43:51;;;;;;;2.42;1.48;;;11.50;99.90;;;;;;6200597;23;20015;-69
2023/12/26 00:46:18;;;;;;;2.97;1.48;;;11.60;99.90;;;;;;6200343;23;20433;-70
2023/12/26 00:48:44;;;;;;;3.53;1.42;;;11.50;99.90;;;;;;6199807;23;20012;-70
2023/12/26 00:51:09;;;;;;;2.65;1.30;;;11.50;99.90;;;;;;6200636;23;20023;-69
2023/12/26 00:53:35;;;;;;;3.85;1.75;;;11.50;99.90;;;;;;6200583;23;20008;-70
2023/12/26 00:56:01;;;;;;;3.47;1.48;;;11.50;99.90;;;;;;6199833;23;20167;-70
2023/12/26 00:58:26;;;;;;;2.15;1.30;;;11.50;99.90;;;;;;6200912;23;20000;-69
2023/12/26 01:00:52;;;;;;;2.00;1.50;;;11.60;99.90;;;;;;6200313;23;20009;-70
2023/12/26 01:03:22;;;;;;;2.22;1.27;;;11.50;99.90;;;;;;6199494;23;20449;-69
2023/12/26 01:05:51;;;;;;;1.92;1.52;;;11.50;99.90;;;;;;6200801;23;20088;-69
2023/12/26 01:08:18;;;;;;;3.88;1.52;;;11.40;99.90;;;;;;6198663;23;20036;-69
2023/12/26 01:10:44;;;;;;;3.03;1.40;;;11.40;99.90;;;;;;6199593;23;20020;-70
2023/12/26 01:13:09;;;;;;;2.70;1.40;;;11.40;99.90;;;;;;6199667;23;20012;-69
2023/12/26 01:15:35;;;;;;;2.03;1.50;;;11.40;99.90;;;;;;6201010;23;20008;-70
2023/12/26 01:18:01;;;;;;;3.25;1.58;;;11.30;99.90;;;;;;6200731;23;20689;-65
2023/12/26 01:20:26;;;;;;;3.55;1.67;;;11.20;99.90;;;;;;6198125;23;20011;-65
2023/12/26 01:22:52;;;;;;;4.35;1.60;;;11.00;99.90;;;;;;6200055;23;20659;-65
2023/12/26 01:25:17;;;;;;;3.42;1.45;;;11.00;99.90;;;;;;6201155;23;20083;-64
2023/12/26 01:27:43;;;;;;;2.97;1.60;;;11.00;99.90;;;;;;6200042;23;20473;-65
2023/12/26 01:30:09;;;;;;;4.50;1.90;;;11.00;99.90;;;;;;6200565;23;20347;-64
2023/12/26 01:32:34;;;;;;;3.30;2.03;;;11.10;99.90;;;;;;6198988;23;20063;-65
2023/12/26 01:35:00;;;;;;;5.05;2.33;;;11.10;99.90;;;;;;6200884;23;20494;-69
2023/12/26 01:37:26;;;;;;;3.95;1.80;;;11.10;99.90;;;;;;6198630;23;20398;-69
2023/12/26 01:39:51;;;;;;;3.88;1.60;;;11.10;99.90;;;;;;6198096;23;20326;-70
2023/12/26 01:42:17;;;;;;;4.22;1.75;;;11.10;99.90;;;;;;6198930;23;20004;-70
2023/12/26 01:44:43;;;;;;;3.60;2.25;;;11.20;99.90;;;;;;6201522;23;20080;-70
2023/12/26 01:47:10;;;;;;;5.90;2.03;;;11.20;99.90;;;;;;6201170;23;20020;-70
2023/12/26 01:49:36;;;;;;;3.47;1.67;;;11.20;99.90;;;;;;6202144;23;20011;-70
2023/12/26 01:52:05;;;;;;;4.25;1.98;;;11.20;99.90;;;;;;6202966;23;20012;-70
2023/12/26 01:54:33;;;;;;;2.40;1.40;;;11.20;99.90;;;;;;6200985;23;20449;-70
2023/12/26 01:56:59;;;;;;;4.43;1.80;;;11.30;99.90;;;;;;6202938;23;20096;-70
2023/12/26 01:59:25;;;;;;;2.90;1.67;;;11.30;99.90;;;;;;6202613;23;20032;-70
2023/12/26 02:01:51;;;;;;;3.42;1.60;;;11.30;99.90;;;;;;6203377;23;20197;-70
2023/12/26 02:04:17;;;;;;;2.70;1.70;;;11.30;99.90;;;;;;6198854;23;20101;-71
2023/12/26 02:06:42;;;;;;;3.88;1.90;;;11.40;99.90;;;;;;6202994;23;20009;-71
2023/12/26 02:09:10;;;;;;;3.40;1.60;;;11.40;99.90;;;;;;6201981;23;20028;-70
2023/12/26 02:11:37;;;;;;;3.55;1.75;;;11.40;99.90;;;;;;6199803;23;20043;-71
2023/12/26 02:14:04;;;;;;;3.15;1.40;;;11.40;99.90;;;;;;6201430;23;20012;-70
2023/12/26 02:16:33;;;;;;;2.15;1.23;;;11.40;99.90;;;;;;6203539;23;20013;-71
2023/12/26 02:18:59;;;;;;;1.70;1.02;;;11.30;99.90;;;;;;6200936;23;20051;-71
2023/12/26 02:21:24;;;;;;;3.08;0.80;;;11.30;99.90;;;;;;6202575;23;20430;-70
2023/12/26 02:23:53;;;;;;;2.38;1.35;;;11.30;99.90;;;;;;6201411;23;20007;-70
2023/12/26 02:26:24;;;;;;;2.05;1.15;;;11.30;99.90;;;;;;6201727;23;20035;-70
2023/12/26 02:28:50;;;;;;;2.50;0.98;;;11.30;99.90;;;;;;6201572;23;20005;-70
2023/12/26 02:31:17;;;;;;;2.50;1.00;;;11.30;99.90;;;;;;6201255;23;20016;-70
2023/12/26 02:33:47;;;;;;;2.45;1.33;;;11.40;99.90;;;;;;6200697;23;20583;-71
2023/12/26 02:36:13;;;;;;;3.08;1.63;;;11.40;99.90;;;;;;6202504;23;20008;-70
2023/12/26 02:38:38;;;;;;;2.95;1.48;;;11.40;99.90;;;;;;6202067;23;20487;-70
2023/12/26 02:41:04;;;;;;;2.83;1.08;;;11.40;99.90;;;;;;6197607;23;20009;-70
2023/12/26 02:43:30;;;;;;;1.27;0.80;;;11.50;99.90;;;;;;6199852;23;20004;-71
2023/12/26 02:45:55;;;;;;;1.25;1.08;;;11.50;99.90;;;;;;6201449;23;20005;-71
2023/12/26 02:48:21;;;;;;;2.10;1.33;;;11.50;99.90;;;;;;6199481;23;20016;-65
2023/12/26 02:50:47;;;;;;;2.72;1.55;;;11.50;99.90;;;;;;6201483;23;20095;-65
2023/12/26 02:53:13;;;;;;;1.77;1.00;;;11.50;99.90;;;;;;6200324;23;20048;-65
2023/12/26 02:55:40;;;;;;;1.85;1.33;;;11.60;99.90;;;;;;6201474;23;20037;-65
2023/12/26 02:58:05;;;;;;;1.80;1.10;;;11.50;99.90;;;;;;6200794;23;20008;-64
2023/12/26 03:00:31;;;;;;;2.42;0.93;;;11.50;99.90;;;;;;6201265;23;20676;-64
2023/12/26 03:02:57;;;;;;;2.45;1.17;;;11.50;99.90;;;;;;6198404;23;20032;-65
2023/12/26 03:05:23;;;;;;;1.27;1.00;;;11.50;99.90;;;;;;6200976;23;20426;-70
2023/12/26 03:07:49;;;;;;;2.78;1.10;;;11.50;99.90;;;;;;6201715;23;20492;-64
2023/12/26 03:10:14;;;;;;;6.25;0.90;;;11.50;99.90;;;;;;6200312;23;20031;-65
2023/12/26 03:12:41;;;;;;;2.38;1.00;;;11.40;99.90;;;;;;6201741;23;20016;-65
2023/12/26 03:15:07;;;;;;;1.98;0.90;;;11.40;99.90;;;;;;6198753;23;20008;-64
2023/12/26 03:17:33;;;;;;;1.75;1.08;;;11.40;99.90;;;;;;6202418;23;20012;-64
2023/12/26 03:19:59;;;;;;;1.85;1.00;;;11.30;99.90;;;;;;6197775;23;20000;-65
2023/12/26 03:22:24;;;;;;;1.30;1.02;;;11.30;99.90;;;;;;6201340;23;20449;-65
2023/12/26 03:24:50;;;;;;;3.92;1.10;;;11.30;99.90;;;;;;6201205;23;20008;-64
2023/12/26 03:27:16;;;;;;;2.95;1.05;;;11.30;99.90;;;;;;6201199;23;20110;-64
2023/12/26 03:29:41;;;;;;;1.70;0.90;;;11.30;99.90;;;;;;6201770;23;20004;-64
2023/12/26 03:32:09;;;;;;;2.58;1.17;;;11.30;99.90;;;;;;6201137;23;20346;-64
